createdAt,value
2018-11-10T00:00:01.272Z,22.47
2018-11-10T00:02:28.563Z,21.53
2018-11-10T00:04:55.957Z,22.67
2018-11-10T00:07:23.195Z,20.43
2018-11-10T00:09:50.480Z,21.03
2018-11-10T00:12:17.883Z,19.67
2018-11-10T00:14:45.136Z,20.27
2018-11-10T00:17:12.395Z,19.43
2018-11-10T00:19:39.762Z,20.90
2018-11-10T00:22:07.041Z,21.27
2018-11-10T00:24:34.291Z,20.83
2018-11-10T00:27:02.035Z,19.57
2018-11-10T00:29:29.307Z,21.27
2018-11-10T00:31:56.600Z,21.07
2018-11-10T00:34:23.903Z,21.73
2018-11-10T00:36:51.156Z,22.13
2018-11-10T00:39:18.496Z,22.93
2018-11-10T00:41:45.898Z,22.53
2018-11-10T00:44:13.171Z,21.07
2018-11-10T00:46:40.423Z,22.43
2018-11-10T00:49:07.812Z,22.40
2018-11-10T00:51:35.071Z,22.63
2018-11-10T00:54:02.387Z,21.20
2018-11-10T00:56:29.683Z,22.93
2018-11-10T00:58:56.951Z,20.93
2018-11-10T01:01:24.183Z,21.47
2018-11-10T01:03:51.722Z,23.10
2018-11-10T01:06:18.972Z,22.80
2018-11-10T01:08:46.286Z,25.53
2018-11-10T01:11:13.611Z,23.47
2018-11-10T01:13:40.890Z,24.03
2018-11-10T01:16:08.165Z,25.27
2018-11-10T01:18:35.527Z,24.47
2018-11-10T01:21:02.824Z,24.00
2018-11-10T01:23:30.078Z,25.73
2018-11-10T01:25:57.434Z,26.20
2018-11-10T01:28:24.712Z,27.53
2018-11-10T01:30:51.998Z,28.43
2018-11-10T01:33:19.447Z,30.47
2018-11-10T01:35:46.688Z,31.37
2018-11-10T01:38:13.938Z,31.70
2018-11-10T01:40:41.850Z,31.10
2018-11-10T01:43:09.103Z,31.47
2018-11-10T01:45:36.362Z,33.53
2018-11-10T01:48:03.987Z,34.40
2018-11-10T01:50:31.219Z,34.03
2018-11-10T01:52:58.507Z,31.33
2018-11-10T01:55:25.862Z,30.47
2018-11-10T01:57:53.126Z,30.37
2018-11-10T02:00:20.387Z,33.67
2018-11-10T02:02:48.103Z,30.87
2018-11-10T02:05:15.892Z,31.47
2018-11-10T02:07:43.875Z,29.13
2018-11-10T02:10:11.695Z,28.23
2018-11-10T02:12:39.047Z,26.67
2018-11-10T02:15:08.346Z,28.20
2018-11-10T02:17:35.619Z,25.50
2018-11-10T02:20:03.075Z,25.67
2018-11-10T02:22:30.347Z,27.13
2018-11-10T02:24:57.648Z,26.90
2018-11-10T02:27:25.380Z,28.33
2018-11-10T02:29:53.974Z,28.27
2018-11-10T02:32:21.278Z,28.40
2018-11-10T02:34:48.918Z,27.73
2018-11-10T02:37:16.205Z,28.93
2018-11-10T02:39:43.599Z,29.20
2018-11-10T02:42:10.871Z,29.83
2018-11-10T02:44:38.148Z,29.20
2018-11-10T02:47:05.519Z,26.83
2018-11-10T02:49:32.771Z,25.97
2018-11-10T02:52:00.071Z,25.80
2018-11-10T02:54:27.375Z,25.80
2018-11-10T02:56:54.706Z,28.07
2018-11-10T02:59:22.282Z,27.63
2018-11-10T03:01:49.663Z,27.97
2018-11-10T03:04:16.898Z,28.33
2018-11-10T03:06:44.181Z,29.37
2018-11-10T03:09:11.628Z,31.40
2018-11-10T03:11:39.363Z,28.80
2018-11-10T03:14:06.736Z,28.93
2018-11-10T03:16:34.133Z,27.07
2018-11-10T03:19:01.280Z,28.23
2018-11-10T03:21:28.563Z,30.70
2018-11-10T03:23:55.970Z,28.90
2018-11-10T03:26:23.232Z,29.27
2018-11-10T03:28:50.519Z,28.23
2018-11-10T03:31:17.864Z,29.23
2018-11-10T03:33:45.175Z,26.77
2018-11-10T03:36:12.455Z,23.57
2018-11-10T03:38:39.851Z,25.50
2018-11-10T03:41:07.115Z,24.00
2018-11-10T03:43:34.412Z,23.97
2018-11-10T03:46:01.776Z,24.57
2018-11-10T03:48:29.032Z,22.60
2018-11-10T03:50:56.278Z,21.37
2018-11-10T03:53:23.640Z,21.13
2018-11-10T03:55:51.011Z,19.97
2018-11-10T03:58:18.284Z,20.87
2018-11-10T04:00:45.573Z,19.70
2018-11-10T04:03:12.799Z,20.80
2018-11-10T04:05:40.063Z,16.63
2018-11-10T04:08:07.413Z,17.43
2018-11-10T04:10:34.648Z,16.93
2018-11-10T04:13:01.916Z,15.87
2018-11-10T04:15:29.338Z,16.20
2018-11-10T04:17:56.595Z,15.20
2018-11-10T04:20:23.827Z,16.57
2018-11-10T04:22:51.182Z,13.67
2018-11-10T04:25:18.411Z,14.63
2018-11-10T04:27:45.673Z,13.60
2018-11-10T04:30:13.065Z,13.80
2018-11-10T04:32:40.379Z,13.93
2018-11-10T04:35:07.951Z,13.53
2018-11-10T04:37:35.494Z,14.50
2018-11-10T04:40:02.805Z,15.77
2018-11-10T04:42:30.051Z,15.67
2018-11-10T04:44:57.449Z,15.73
2018-11-10T04:47:24.705Z,16.33
2018-11-10T04:49:52.109Z,15.60
2018-11-10T04:52:19.485Z,16.80
2018-11-10T04:54:46.771Z,17.40
2018-11-10T04:57:14.032Z,16.50
2018-11-10T04:59:41.404Z,18.80
2018-11-10T05:02:08.691Z,17.63
2018-11-10T05:04:35.946Z,16.77
2018-11-10T05:07:03.243Z,18.10
2018-11-10T05:09:30.499Z,19.77
2018-11-10T05:11:57.772Z,19.50
2018-11-10T05:14:25.420Z,19.43
2018-11-10T05:16:52.696Z,18.10
2018-11-10T05:19:19.936Z,18.90
2018-11-10T05:21:47.361Z,19.83
2018-11-10T05:24:14.815Z,21.03
2018-11-10T05:26:42.082Z,22.87
2018-11-10T05:29:09.335Z,24.00
2018-11-10T05:31:36.898Z,22.33
2018-11-10T05:34:04.988Z,22.73
2018-11-10T05:36:32.334Z,23.93
2018-11-10T05:38:59.582Z,23.63
2018-11-10T05:41:26.843Z,26.40
2018-11-10T05:43:54.106Z,28.83
2018-11-10T05:46:21.368Z,28.00
2018-11-10T05:48:48.605Z,28.30
2018-11-10T05:51:15.983Z,26.87
2018-11-10T05:53:43.197Z,28.57
2018-11-10T05:56:11.026Z,28.07
2018-11-10T05:58:38.291Z,29.13
2018-11-10T06:01:05.865Z,33.23
2018-11-10T06:03:33.120Z,33.47
2018-11-10T06:06:00.374Z,34.10
2018-11-10T06:08:27.687Z,34.70
2018-11-10T06:10:54.935Z,36.77
2018-11-10T06:13:22.242Z,36.60
2018-11-10T06:15:49.519Z,40.23
2018-11-10T06:18:16.804Z,39.43
2018-11-10T06:20:44.165Z,38.97
2018-11-10T06:23:11.406Z,36.13
2018-11-10T06:25:38.664Z,35.30
2018-11-10T06:28:06.047Z,37.20
2018-11-10T06:30:33.307Z,35.57
2018-11-10T06:33:00.599Z,37.03
2018-11-10T06:35:27.997Z,38.10
2018-11-10T06:37:55.276Z,40.13
2018-11-10T06:40:22.551Z,40.57
2018-11-10T06:42:50.101Z,40.77
2018-11-10T06:45:17.436Z,40.13
2018-11-10T06:47:44.696Z,42.10
2018-11-10T06:50:12.363Z,43.30
2018-11-10T06:52:39.627Z,42.13
2018-11-10T06:55:07.889Z,40.80
2018-11-10T06:57:35.265Z,40.17
2018-11-10T07:00:03.005Z,41.03
2018-11-10T07:02:30.218Z,41.60
2018-11-10T07:04:57.555Z,41.17
2018-11-10T07:07:24.797Z,39.13
2018-11-10T07:09:52.014Z,40.90
2018-11-10T07:12:19.279Z,40.67
2018-11-10T07:14:46.501Z,39.13
2018-11-10T07:17:13.738Z,40.03
2018-11-10T07:19:41.398Z,40.10
2018-11-10T07:22:08.680Z,41.23
2018-11-10T07:24:35.932Z,41.70
2018-11-10T07:27:03.342Z,42.77
2018-11-10T07:29:30.599Z,42.70
2018-11-10T07:31:57.822Z,43.27
2018-11-10T07:34:25.191Z,43.87
2018-11-10T07:36:52.440Z,43.00
2018-11-10T07:39:19.734Z,43.80
2018-11-10T07:41:47.106Z,43.67
2018-11-10T07:44:14.377Z,44.23
2018-11-10T07:46:41.607Z,46.20
2018-11-10T07:49:08.909Z,48.27
2018-11-10T07:51:36.144Z,50.03
2018-11-10T07:54:03.407Z,43.17
2018-11-10T07:56:31.006Z,48.93
2018-11-10T07:58:58.241Z,49.03
2018-11-10T08:01:25.463Z,53.57
2018-11-10T08:03:52.867Z,51.53
2018-11-10T08:06:20.146Z,50.73
2018-11-10T08:08:47.437Z,50.97
2018-11-10T08:11:14.808Z,54.40
2018-11-10T08:13:42.032Z,53.63
2018-11-10T08:16:09.264Z,50.63
2018-11-10T08:18:36.712Z,49.70
2018-11-10T08:21:04.171Z,49.80
2018-11-10T08:23:31.383Z,47.53
2018-11-10T08:25:58.728Z,50.10
2018-11-10T08:28:25.991Z,54.43
2018-11-10T08:30:53.252Z,50.03
2018-11-10T08:33:20.514Z,50.07
2018-11-10T08:35:47.754Z,49.87
2018-11-10T08:38:15.061Z,47.20
2018-11-10T08:40:42.452Z,48.90
2018-11-10T08:43:09.682Z,50.07
2018-11-10T08:45:36.919Z,50.13
2018-11-10T08:48:04.345Z,47.00
2018-11-10T08:50:31.643Z,50.90
2018-11-10T08:52:58.918Z,47.43
2018-11-10T08:55:26.252Z,48.03
2018-11-10T08:57:53.562Z,45.63
2018-11-10T09:00:20.783Z,45.43
2018-11-10T09:02:48.126Z,47.07
2018-11-10T09:05:15.332Z,46.37
2018-11-10T09:07:42.615Z,46.43
2018-11-10T09:10:11.213Z,45.97
2018-11-10T09:12:38.503Z,44.57
2018-11-10T09:15:07.673Z,44.03
2018-11-10T09:17:34.994Z,39.90
2018-11-10T09:20:02.279Z,43.87
2018-11-10T09:22:29.551Z,43.03
2018-11-10T09:24:56.925Z,43.33
2018-11-10T09:27:24.143Z,42.53
2018-11-10T09:29:51.363Z,43.97
2018-11-10T09:32:18.718Z,39.37
2018-11-10T09:34:45.938Z,43.23
2018-11-10T09:37:13.184Z,42.77
2018-11-10T09:39:40.655Z,42.40
2018-11-10T09:42:08.003Z,40.90
2018-11-10T09:44:35.190Z,42.20
2018-11-10T09:47:02.554Z,39.40
2018-11-10T09:49:29.788Z,43.43
2018-11-10T09:51:57.016Z,40.50
2018-11-10T09:54:24.407Z,39.73
2018-11-10T09:56:51.620Z,40.63
2018-11-10T09:59:18.891Z,38.43
2018-11-10T10:01:46.312Z,40.27
2018-11-10T10:04:13.541Z,39.20
2018-11-10T10:06:40.847Z,36.00
2018-11-10T10:09:09.190Z,36.57
2018-11-10T10:11:36.643Z,37.27
2018-11-10T10:14:04.598Z,38.23
2018-11-10T10:16:32.060Z,35.60
2018-11-10T10:18:59.286Z,37.43
2018-11-10T10:21:26.542Z,36.13
2018-11-10T10:23:53.827Z,38.70
2018-11-10T10:26:21.077Z,38.27
2018-11-10T10:28:48.372Z,36.73
2018-11-10T10:31:15.603Z,35.20
2018-11-10T10:33:42.843Z,37.17
2018-11-10T10:36:10.107Z,34.57
2018-11-10T10:38:37.580Z,35.23
2018-11-10T10:41:05.181Z,35.97
2018-11-10T10:43:32.449Z,34.83
2018-11-10T10:45:59.823Z,32.83
2018-11-10T10:48:27.125Z,34.33
2018-11-10T10:50:54.352Z,36.83
2018-11-10T10:53:21.662Z,34.13
2018-11-10T10:55:48.959Z,33.60
2018-11-10T10:58:16.187Z,33.50
2018-11-10T11:00:49.275Z,36.10
2018-11-10T11:03:22.282Z,35.57
2018-11-10T11:05:55.215Z,31.23
2018-11-10T11:08:22.446Z,31.37
2018-11-10T11:10:50.094Z,31.07
2018-11-10T11:13:19.572Z,32.43
2018-11-10T11:15:50.136Z,31.33
2018-11-10T11:18:17.301Z,31.40
2018-11-10T11:20:44.819Z,29.10
2018-11-10T11:23:12.117Z,29.40
2018-11-10T11:25:39.361Z,30.33
2018-11-10T11:28:06.794Z,28.63
2018-11-10T11:30:34.047Z,29.37
2018-11-10T11:33:01.345Z,29.00
2018-11-10T11:35:28.707Z,29.07
2018-11-10T11:37:56.022Z,27.87
2018-11-10T11:40:23.272Z,28.53
2018-11-10T11:42:50.654Z,27.93
2018-11-10T11:45:17.947Z,26.90
2018-11-10T11:47:45.195Z,27.30
2018-11-10T11:50:13.700Z,27.40
2018-11-10T11:52:41.429Z,28.77
2018-11-10T11:55:09.414Z,28.20
2018-11-10T11:57:36.709Z,27.33
2018-11-10T12:00:05.762Z,27.43
2018-11-10T12:02:33.022Z,28.97
2018-11-10T12:05:00.336Z,29.60
2018-11-10T12:07:27.602Z,28.93
2018-11-10T12:09:54.867Z,28.77
2018-11-10T12:12:22.272Z,26.80
2018-11-10T12:14:49.860Z,29.23
2018-11-10T12:17:17.381Z,28.70
2018-11-10T12:19:44.947Z,28.70
2018-11-10T12:22:12.355Z,27.97
2018-11-10T12:24:39.624Z,28.67
2018-11-10T12:27:07.565Z,27.73
2018-11-10T12:29:34.796Z,29.67
2018-11-10T12:32:02.155Z,28.87
2018-11-10T12:34:29.459Z,29.77
2018-11-10T12:36:56.717Z,28.50
2018-11-10T12:39:24.036Z,29.20
2018-11-10T12:41:51.399Z,30.53
2018-11-10T12:44:18.656Z,31.50
2018-11-10T12:46:45.923Z,29.77
2018-11-10T12:49:13.350Z,28.50
2018-11-10T12:51:40.575Z,29.07
2018-11-10T12:54:07.835Z,28.80
2018-11-10T12:56:35.262Z,28.20
2018-11-10T12:59:02.857Z,28.77
2018-11-10T13:01:30.107Z,27.63
2018-11-10T13:03:57.519Z,27.20
2018-11-10T13:06:24.778Z,29.73
2018-11-10T13:08:52.083Z,28.43
2018-11-10T13:11:19.552Z,29.53
2018-11-10T13:13:46.743Z,29.57
2018-11-10T13:16:14.023Z,29.50
2018-11-10T13:18:41.407Z,30.07
2018-11-10T13:21:08.659Z,30.90
2018-11-10T13:23:35.936Z,30.50
2018-11-10T13:26:03.506Z,29.57
2018-11-10T13:28:30.792Z,29.23
2018-11-10T13:30:58.228Z,29.27
2018-11-10T13:33:25.503Z,30.50
2018-11-10T13:35:52.745Z,28.73
2018-11-10T13:38:20.032Z,28.13
2018-11-10T13:40:47.378Z,29.80
2018-11-10T13:43:14.652Z,31.87
2018-11-10T13:45:41.898Z,29.73
2018-11-10T13:48:09.266Z,29.47
2018-11-10T13:50:36.636Z,29.23
2018-11-10T13:53:04.699Z,30.07
2018-11-10T13:55:31.762Z,30.03
2018-11-10T13:57:59.042Z,29.27
2018-11-10T14:00:26.310Z,30.47
2018-11-10T14:02:53.718Z,31.67
2018-11-10T14:05:21.038Z,32.07
2018-11-10T14:07:48.347Z,31.10
2018-11-10T14:10:16.458Z,32.37
2018-11-10T14:12:44.751Z,31.57
2018-11-10T14:15:12.004Z,31.67
2018-11-10T14:17:40.147Z,29.83
2018-11-10T14:20:09.223Z,30.83
2018-11-10T14:22:36.592Z,32.63
2018-11-10T14:25:05.490Z,29.67
2018-11-10T14:27:32.775Z,29.70
2018-11-10T14:30:00.020Z,29.93
2018-11-10T14:32:27.387Z,31.23
2018-11-10T14:34:54.674Z,30.77
2018-11-10T14:37:21.924Z,31.60
2018-11-10T14:39:49.296Z,31.83
2018-11-10T14:42:16.574Z,30.53
2018-11-10T14:44:43.824Z,30.60
2018-11-10T14:47:11.122Z,30.10
2018-11-10T14:49:38.391Z,33.53
2018-11-10T14:52:05.868Z,33.00
2018-11-10T14:54:33.267Z,33.50
2018-11-10T14:57:00.547Z,33.23
2018-11-10T14:59:27.790Z,32.67
2018-11-10T15:01:55.084Z,30.70
2018-11-10T15:04:22.369Z,29.87
2018-11-10T15:06:49.694Z,29.23
2018-11-10T15:09:17.077Z,33.93
2018-11-10T15:11:44.460Z,32.27
2018-11-10T15:14:11.550Z,31.33
2018-11-10T15:16:39.008Z,31.83
2018-11-10T15:19:06.819Z,33.37
2018-11-10T15:21:34.062Z,32.73
2018-11-10T15:24:01.407Z,32.60
2018-11-10T15:26:28.658Z,30.67
2018-11-10T15:28:55.919Z,32.40
2018-11-10T15:31:23.291Z,31.83
2018-11-10T15:33:50.561Z,31.20
2018-11-10T15:36:17.874Z,29.83
2018-11-10T15:38:45.933Z,30.90
2018-11-10T15:41:13.223Z,32.20
2018-11-10T15:43:40.468Z,32.70
2018-11-10T15:46:07.999Z,32.97
2018-11-10T15:48:35.308Z,32.27
2018-11-10T15:51:02.622Z,33.37
2018-11-10T15:53:30.027Z,33.67
2018-11-10T15:55:57.342Z,35.27
2018-11-10T15:58:24.602Z,33.67
2018-11-10T16:00:52.003Z,33.20
2018-11-10T16:03:19.250Z,32.13
2018-11-10T16:05:46.503Z,31.63
2018-11-10T16:08:13.930Z,32.03
2018-11-10T16:10:41.188Z,33.03
2018-11-10T16:13:08.435Z,32.93
2018-11-10T16:15:35.798Z,33.10
2018-11-10T16:18:03.079Z,32.20
2018-11-10T16:20:30.346Z,32.80
2018-11-10T16:22:57.714Z,33.97
2018-11-10T16:25:25.005Z,35.20
2018-11-10T16:27:52.295Z,35.07
2018-11-10T16:30:19.988Z,36.73
2018-11-10T16:32:47.949Z,35.50
2018-11-10T16:35:15.235Z,35.13
2018-11-10T16:37:42.649Z,36.37
2018-11-10T16:40:13.356Z,36.67
2018-11-10T16:42:41.577Z,36.47
2018-11-10T16:45:09.595Z,35.83
2018-11-10T16:47:37.124Z,36.73
2018-11-10T16:50:04.606Z,37.97
2018-11-10T16:52:32.218Z,34.07
2018-11-10T16:54:59.602Z,37.93
2018-11-10T16:57:27.356Z,37.87
2018-11-10T16:59:54.732Z,35.73
2018-11-10T17:02:22.129Z,36.67
2018-11-10T17:04:49.462Z,34.77
2018-11-10T17:07:16.987Z,35.93
2018-11-10T17:09:44.255Z,35.77
2018-11-10T17:12:11.609Z,37.37
2018-11-10T17:14:39.219Z,36.90
2018-11-10T17:17:06.520Z,38.30
2018-11-10T17:19:33.812Z,37.23
2018-11-10T17:22:01.459Z,34.57
2018-11-10T17:24:28.543Z,35.17
2018-11-10T17:26:55.810Z,35.90
2018-11-10T17:29:23.191Z,35.27
2018-11-10T17:31:50.458Z,36.17
2018-11-10T17:34:17.754Z,36.13
2018-11-10T17:36:45.186Z,37.10
2018-11-10T17:39:12.597Z,36.93
2018-11-10T17:41:39.785Z,34.83
2018-11-10T17:44:07.390Z,33.77
2018-11-10T17:46:34.900Z,32.90
2018-11-10T17:49:02.192Z,32.23
2018-11-10T17:51:29.580Z,34.17
2018-11-10T17:53:56.863Z,35.40
2018-11-10T17:56:24.144Z,35.47
2018-11-10T17:58:51.514Z,35.13
2018-11-10T18:01:18.814Z,33.10
2018-11-10T18:03:46.037Z,33.57
2018-11-10T18:06:13.523Z,33.87
2018-11-10T18:08:41.584Z,34.43
2018-11-10T18:11:08.831Z,33.67
2018-11-10T18:13:37.309Z,34.20
2018-11-10T18:16:04.596Z,34.37
2018-11-10T18:18:34.486Z,36.27
2018-11-10T18:21:01.902Z,36.17
2018-11-10T18:23:29.183Z,37.73
2018-11-10T18:25:56.425Z,36.67
2018-11-10T18:28:23.811Z,37.17
2018-11-10T18:30:51.107Z,36.70
2018-11-10T18:33:18.334Z,37.37
2018-11-10T18:35:45.713Z,38.03
2018-11-10T18:38:12.995Z,40.77
2018-11-10T18:40:40.267Z,39.07
2018-11-10T18:43:07.654Z,41.00
2018-11-10T18:45:34.883Z,38.90
2018-11-10T18:48:02.377Z,38.40
2018-11-10T18:50:29.742Z,41.17
2018-11-10T18:52:57.019Z,38.63
2018-11-10T18:55:24.483Z,36.50
2018-11-10T18:57:51.933Z,39.57
2018-11-10T19:00:19.321Z,38.57
2018-11-10T19:02:46.646Z,39.20
2018-11-10T19:05:15.263Z,39.63
2018-11-10T19:07:42.514Z,39.70
2018-11-10T19:10:11.386Z,40.27
2018-11-10T19:12:38.854Z,37.77
2018-11-10T19:15:08.665Z,37.80
2018-11-10T19:17:35.874Z,35.67
2018-11-10T19:20:03.261Z,37.13
2018-11-10T19:22:30.504Z,36.67
2018-11-10T19:24:57.739Z,37.93
2018-11-10T19:27:25.098Z,37.87
2018-11-10T19:29:52.347Z,36.47
2018-11-10T19:32:19.633Z,36.80
2018-11-10T19:34:47.098Z,35.97
2018-11-10T19:37:14.338Z,36.90
2018-11-10T19:39:41.602Z,36.20
2018-11-10T19:42:08.981Z,38.17
2018-11-10T19:44:36.244Z,36.27
2018-11-10T19:47:03.483Z,37.87
2018-11-10T19:49:30.822Z,35.27
2018-11-10T19:51:58.199Z,34.00
2018-11-10T19:54:25.314Z,35.80
2018-11-10T19:56:52.671Z,34.23
2018-11-10T19:59:20.058Z,35.80
2018-11-10T20:01:47.305Z,38.10
2018-11-10T20:04:14.754Z,37.13
2018-11-10T20:06:42.010Z,35.90
2018-11-10T20:09:09.800Z,37.90
2018-11-10T20:11:37.151Z,35.93
2018-11-10T20:14:04.558Z,37.43
2018-11-10T20:16:31.774Z,38.23
2018-11-10T20:18:59.138Z,38.43
2018-11-10T20:21:26.390Z,39.87
2018-11-10T20:23:53.638Z,36.63
2018-11-10T20:26:21.003Z,37.63
2018-11-10T20:28:48.247Z,39.47
2018-11-10T20:31:15.561Z,39.67
2018-11-10T20:33:42.928Z,40.37
2018-11-10T20:36:10.193Z,39.20
2018-11-10T20:38:37.440Z,38.83
2018-11-10T20:41:05.354Z,39.10
2018-11-10T20:43:32.647Z,40.20
2018-11-10T20:45:59.887Z,38.13
2018-11-10T20:48:27.236Z,37.10
2018-11-10T20:50:54.531Z,38.73
2018-11-10T20:53:21.804Z,39.73
2018-11-10T20:55:49.204Z,39.03
2018-11-10T20:58:16.800Z,39.13
2018-11-10T21:00:44.087Z,39.10
2018-11-10T21:03:11.405Z,40.63
2018-11-10T21:05:38.666Z,39.30
2018-11-10T21:08:05.914Z,39.03
2018-11-10T21:10:33.285Z,38.63
2018-11-10T21:13:00.621Z,38.93
2018-11-10T21:15:27.805Z,39.13
2018-11-10T21:17:55.202Z,41.33
2018-11-10T21:20:22.581Z,40.20
2018-11-10T21:22:49.784Z,38.67
2018-11-10T21:25:17.667Z,39.13
2018-11-10T21:27:45.358Z,41.40
2018-11-10T21:30:14.084Z,40.37
2018-11-10T21:32:41.690Z,37.83
2018-11-10T21:35:09.045Z,42.93
2018-11-10T21:37:36.724Z,40.33
2018-11-10T21:40:06.546Z,43.03
2018-11-10T21:42:33.813Z,40.73
2018-11-10T21:45:01.063Z,42.17
2018-11-10T21:47:28.415Z,41.60
2018-11-10T21:49:55.715Z,43.73
2018-11-10T21:52:22.960Z,41.97
2018-11-10T21:54:50.318Z,41.83
2018-11-10T21:57:17.565Z,43.93
2018-11-10T21:59:44.893Z,44.77
2018-11-10T22:02:12.184Z,43.40
2018-11-10T22:04:39.444Z,43.17
2018-11-10T22:07:06.668Z,44.00
2018-11-10T22:09:34.230Z,42.07
2018-11-10T22:12:01.430Z,42.90
2018-11-10T22:14:28.695Z,42.43
2018-11-10T22:16:56.041Z,44.77
2018-11-10T22:19:23.277Z,41.60
2018-11-10T22:21:50.507Z,42.97
2018-11-10T22:24:17.787Z,41.77
2018-11-10T22:26:45.036Z,44.03
2018-11-10T22:29:12.252Z,42.87
2018-11-10T22:31:39.518Z,43.87
2018-11-10T22:34:06.730Z,43.47
2018-11-10T22:36:34.284Z,43.63
2018-11-10T22:39:01.625Z,42.87
2018-11-10T22:41:28.870Z,42.83
2018-11-10T22:43:56.093Z,43.87
2018-11-10T22:46:23.473Z,43.33
2018-11-10T22:48:50.722Z,44.70
2018-11-10T22:51:18.374Z,46.37
2018-11-10T22:53:45.720Z,45.07
2018-11-10T22:56:12.966Z,46.33
2018-11-10T22:58:40.200Z,46.57
2018-11-10T23:01:08.820Z,47.63
2018-11-10T23:03:36.863Z,49.50
2018-11-10T23:06:04.286Z,49.13
2018-11-10T23:08:31.679Z,47.87
2018-11-10T23:10:58.910Z,48.07
2018-11-10T23:13:26.146Z,48.10
2018-11-10T23:15:53.484Z,50.67
2018-11-10T23:18:20.942Z,48.23
2018-11-10T23:20:48.171Z,49.13
2018-11-10T23:23:15.460Z,49.47
2018-11-10T23:25:42.715Z,49.53
2018-11-10T23:28:09.936Z,49.00
2018-11-10T23:30:37.302Z,49.03
2018-11-10T23:33:04.649Z,49.13
2018-11-10T23:35:31.885Z,46.73
2018-11-10T23:37:59.241Z,49.27
2018-11-10T23:40:26.461Z,48.57
2018-11-10T23:42:53.709Z,48.50
2018-11-10T23:45:21.050Z,48.40
2018-11-10T23:47:48.299Z,48.10
2018-11-10T23:50:16.755Z,48.37
2018-11-10T23:52:44.115Z,47.43
2018-11-10T23:55:12.182Z,49.17
2018-11-10T23:57:39.441Z,49.10
